createdAt,value
2022-10-03T00:01:36.591Z,100918.31
2022-10-03T00:04:21.650Z,100926.16
2022-10-03T00:07:33.827Z,100921.66
2022-10-03T00:10:14.283Z,100913.69
2022-10-03T00:13:05.732Z,100925.16
2022-10-03T00:15:47.441Z,100925.16
2022-10-03T00:18:41.912Z,100935.75
2022-10-03T00:21:44.755Z,100926.97
2022-10-03T00:24:31.587Z,100927.06
2022-10-03T00:27:49.002Z,100932.41
2022-10-03T00:30:24.660Z,100935.91
2022-10-03T00:33:22.346Z,100930.81
2022-10-03T00:36:07.178Z,100932.81
2022-10-03T00:39:02.547Z,100940.00
2022-10-03T00:41:38.237Z,100932.19
2022-10-03T00:44:13.990Z,100936.56
2022-10-03T00:46:49.745Z,100943.66
2022-10-03T00:49:34.994Z,100949.00
2022-10-03T00:52:04.607Z,100950.81
2022-10-03T00:54:45.358Z,100948.06
2022-10-03T00:57:34.047Z,100939.06
2022-10-03T01:00:07.641Z,100952.22
2022-10-03T01:02:47.742Z,100953.91
2022-10-03T01:05:35.981Z,100957.38
2022-10-03T01:08:48.818Z,100952.06
2022-10-03T01:11:30.358Z,100967.25
2022-10-03T01:14:09.891Z,100965.63
2022-10-03T01:16:57.296Z,100963.13
2022-10-03T01:20:00.175Z,100958.81
2022-10-03T01:23:01.594Z,100969.41
2022-10-03T01:25:47.131Z,100969.63
2022-10-03T01:28:41.519Z,100968.94
2022-10-03T01:31:13.897Z,100965.53
2022-10-03T01:33:46.728Z,100970.88
2022-10-03T01:36:25.334Z,100976.28
2022-10-03T01:39:11.839Z,100974.53
2022-10-03T01:42:12.291Z,100975.38
2022-10-03T01:45:01.722Z,100981.50
2022-10-03T01:47:51.602Z,100979.78
2022-10-03T01:50:38.615Z,100985.19
2022-10-03T01:53:18.983Z,100987.94
2022-10-03T01:55:59.224Z,100988.00
2022-10-03T01:58:36.388Z,100990.72
2022-10-03T02:01:28.155Z,100998.66
2022-10-03T02:04:04.409Z,100999.56
2022-10-03T02:06:50.226Z,100995.09
2022-10-03T02:09:28.386Z,101007.38
2022-10-03T02:12:07.666Z,100998.56
2022-10-03T02:14:46.992Z,100999.34
2022-10-03T02:17:49.239Z,100999.34
2022-10-03T02:20:29.331Z,100997.63
2022-10-03T02:23:00.763Z,101005.59
2022-10-03T02:25:36.173Z,101003.00
2022-10-03T02:28:47.759Z,101010.09
2022-10-03T02:31:48.074Z,101008.38
2022-10-03T02:34:46.755Z,101010.22
2022-10-03T02:37:37.151Z,101014.72
2022-10-03T02:40:10.378Z,101020.97
2022-10-03T02:42:59.573Z,101015.78
2022-10-03T02:46:03.338Z,101021.03
2022-10-03T02:49:04.400Z,101022.88
2022-10-03T02:51:59.748Z,101024.69
2022-10-03T02:54:44.409Z,101015.09
2022-10-03T02:57:16.559Z,101024.94
2022-10-03T03:00:07.711Z,101021.63
2022-10-03T03:02:42.529Z,101018.28
2022-10-03T03:05:22.645Z,101017.47
2022-10-03T03:08:26.346Z,101014.03
2022-10-03T03:11:12.495Z,101015.81
2022-10-03T03:14:16.642Z,101022.81
2022-10-03T03:16:55.874Z,101027.22
2022-10-03T03:19:44.019Z,101025.41
2022-10-03T03:22:32.974Z,101028.91
2022-10-03T03:25:21.617Z,101030.66
2022-10-03T03:28:07.745Z,101035.94
2022-10-03T03:30:45.957Z,101032.47
2022-10-03T03:33:33.515Z,101029.84
2022-10-03T03:36:17.410Z,101033.34
2022-10-03T03:38:53.886Z,101044.72
2022-10-03T03:41:31.119Z,101044.81
2022-10-03T03:44:12.599Z,101049.34
2022-10-03T03:47:30.338Z,101042.31
2022-10-03T03:50:15.017Z,101047.59
2022-10-03T03:53:04.661Z,101044.13
2022-10-03T03:56:04.351Z,101049.44
2022-10-03T03:58:38.059Z,101054.78
2022-10-03T04:01:16.731Z,101056.56
2022-10-03T04:04:05.151Z,101059.22
2022-10-03T04:06:56.603Z,101058.31
2022-10-03T04:09:39.055Z,101063.63
2022-10-03T04:12:09.498Z,101069.78
2022-10-03T04:15:07.393Z,101066.38
2022-10-03T04:18:25.320Z,101067.44
2022-10-03T04:21:07.138Z,101070.28
2022-10-03T04:24:22.082Z,101078.41
2022-10-03T04:27:28.946Z,101072.38
2022-10-03T04:30:16.705Z,101078.53
2022-10-03T04:33:25.517Z,101082.91
2022-10-03T04:36:27.513Z,101080.19
2022-10-03T04:39:20.943Z,101087.22
2022-10-03T04:42:06.273Z,101096.81
2022-10-03T04:45:04.775Z,101102.09
2022-10-03T04:47:56.153Z,101095.91
2022-10-03T04:50:57.473Z,101094.16
2022-10-03T04:53:33.980Z,101096.84
2022-10-03T04:56:12.833Z,101095.94
2022-10-03T04:58:48.910Z,101101.19
2022-10-03T05:01:34.608Z,101101.19
2022-10-03T05:04:12.602Z,101106.47
2022-10-03T05:06:57.111Z,101105.69
2022-10-03T05:09:38.777Z,101112.88
2022-10-03T05:12:45.561Z,101113.78
2022-10-03T05:15:14.969Z,101116.44
2022-10-03T05:18:00.142Z,101120.75
2022-10-03T05:20:47.195Z,101113.72
2022-10-03T05:23:32.422Z,101123.34
2022-10-03T05:26:43.684Z,101119.81
2022-10-03T05:29:31.481Z,101119.81
2022-10-03T05:32:10.958Z,101118.94
2022-10-03T05:34:49.660Z,101118.13
2022-10-03T05:37:43.400Z,101119.88
2022-10-03T05:40:24.613Z,101115.41
2022-10-03T05:42:51.380Z,101125.06
2022-10-03T05:45:49.864Z,101116.28
2022-10-03T05:48:38.042Z,101121.50
2022-10-03T05:51:13.498Z,101119.66
2022-10-03T05:54:37.360Z,101117.94
2022-10-03T05:57:31.748Z,101122.31
2022-10-03T06:00:26.273Z,101126.59
2022-10-03T06:03:11.024Z,101124.78
2022-10-03T06:05:46.667Z,101125.63
2022-10-03T06:08:26.715Z,101132.81
2022-10-03T06:11:02.080Z,101130.34
2022-10-03T06:13:56.032Z,101134.75
2022-10-03T06:16:31.709Z,101134.72
2022-10-03T06:19:25.226Z,101136.47
2022-10-03T06:22:29.865Z,101139.06
2022-10-03T06:25:17.911Z,101143.34
2022-10-03T06:28:11.003Z,101151.94
2022-10-03T06:30:40.261Z,101149.19
2022-10-03T06:33:28.050Z,101152.59
2022-10-03T06:36:30.707Z,101143.59
2022-10-03T06:39:23.839Z,101150.41
2022-10-03T06:42:04.218Z,101149.25
2022-10-03T06:44:56.589Z,101149.91
2022-10-03T06:47:43.390Z,101165.47
2022-10-03T06:50:38.680Z,101162.56
2022-10-03T06:53:11.861Z,101170.22
2022-10-03T06:56:07.967Z,101167.38
2022-10-03T06:59:05.617Z,101167.97
2022-10-03T07:01:53.939Z,101170.38
2022-10-03T07:04:26.180Z,101171.06
2022-10-03T07:07:30.513Z,101164.63
2022-10-03T07:10:19.001Z,101173.19
2022-10-03T07:12:52.570Z,101169.34
2022-10-03T07:16:14.334Z,101174.41
2022-10-03T07:19:04.489Z,101169.66
2022-10-03T07:21:47.250Z,101171.16
2022-10-03T07:24:32.034Z,101182.38
2022-10-03T07:27:17.831Z,101183.00
2022-10-03T07:30:16.857Z,101183.72
2022-10-03T07:33:04.965Z,101182.56
2022-10-03T07:36:03.600Z,101180.56
2022-10-03T07:38:49.823Z,101182.06
2022-10-03T07:41:22.163Z,101177.41
2022-10-03T07:44:03.989Z,101182.56
2022-10-03T07:46:54.812Z,101183.25
2022-10-03T07:49:48.604Z,101179.53
2022-10-03T07:52:32.563Z,101183.75
2022-10-03T07:55:19.561Z,101180.94
2022-10-03T07:57:48.678Z,101190.53
2022-10-03T08:00:24.515Z,101190.25
2022-10-03T08:03:15.913Z,101190.81
2022-10-03T08:05:49.657Z,101199.47
2022-10-03T08:08:34.609Z,101194.03
2022-10-03T08:11:01.167Z,101197.47
2022-10-03T08:14:01.279Z,101193.06
2022-10-03T08:16:43.189Z,101201.03
2022-10-03T08:19:19.192Z,101198.44
2022-10-03T08:22:15.655Z,101200.22
2022-10-03T08:25:09.090Z,101197.50
2022-10-03T08:27:47.112Z,101209.91
2022-10-03T08:30:21.437Z,101207.31
2022-10-03T08:33:25.440Z,101214.50
2022-10-03T08:36:13.979Z,101212.75
2022-10-03T08:39:02.312Z,101213.69
2022-10-03T08:41:52.659Z,101206.75
2022-10-03T08:44:30.235Z,101204.09
2022-10-03T08:47:02.413Z,101210.13
2022-10-03T08:49:45.452Z,101209.09
2022-10-03T08:52:32.986Z,101203.69
2022-10-03T08:55:27.289Z,101201.75
2022-10-03T08:58:25.683Z,101199.00
2022-10-03T09:01:36.388Z,101197.25
2022-10-03T09:04:37.065Z,101204.34
2022-10-03T09:07:20.344Z,101200.72
2022-10-03T09:10:07.670Z,101204.09
2022-10-03T09:13:02.533Z,101204.91
2022-10-03T09:16:07.828Z,101206.63
2022-10-03T09:19:19.133Z,101207.28
2022-10-03T09:21:48.634Z,101207.78
2022-10-03T09:24:53.007Z,101212.72
2022-10-03T09:27:32.333Z,101206.22
2022-10-03T09:30:23.246Z,101212.25
2022-10-03T09:33:14.469Z,101210.31
2022-10-03T09:36:04.405Z,101219.94
2022-10-03T09:39:02.626Z,101213.63
2022-10-03T09:41:39.173Z,101209.13
2022-10-03T09:44:18.014Z,101208.06
2022-10-03T09:47:35.427Z,101204.50
2022-10-03T09:50:28.724Z,101206.44
2022-10-03T09:53:02.464Z,101212.88
2022-10-03T09:55:52.171Z,101215.84
2022-10-03T09:58:47.743Z,101212.44
2022-10-03T10:01:26.178Z,101216.97
2022-10-03T10:04:54.198Z,101218.75
2022-10-03T10:07:49.229Z,101216.97
2022-10-03T10:10:36.857Z,101211.53
2022-10-03T10:13:12.403Z,101215.78
2022-10-03T10:15:47.765Z,101215.78
2022-10-03T10:18:17.424Z,101222.91
2022-10-03T10:21:02.404Z,101221.09
2022-10-03T10:23:38.190Z,101214.00
2022-10-03T10:26:35.762Z,101207.88
2022-10-03T10:29:17.546Z,101204.28
2022-10-03T10:32:28.639Z,101217.25
2022-10-03T10:35:10.234Z,101217.31
2022-10-03T10:38:03.361Z,101212.22
2022-10-03T10:40:48.240Z,101221.94
2022-10-03T10:43:33.814Z,101218.31
2022-10-03T10:46:18.744Z,101223.38
2022-10-03T10:49:22.791Z,101211.78
2022-10-03T10:52:19.195Z,101219.81
2022-10-03T10:55:22.272Z,101216.28
2022-10-03T10:58:11.803Z,101219.63
2022-10-03T11:00:41.797Z,101216.13
2022-10-03T11:03:33.384Z,101217.09
2022-10-03T11:06:17.230Z,101221.53
2022-10-03T11:09:11.762Z,101214.41
2022-10-03T11:11:59.830Z,101217.06
2022-10-03T11:15:19.861Z,101217.09
2022-10-03T11:18:04.642Z,101215.28
2022-10-03T11:21:10.389Z,101209.19
2022-10-03T11:24:14.990Z,101215.28
2022-10-03T11:27:03.468Z,101209.00
2022-10-03T11:29:48.099Z,101208.06
2022-10-03T11:32:45.192Z,101211.56
2022-10-03T11:35:49.283Z,101208.91
2022-10-03T11:38:24.701Z,101217.81
2022-10-03T11:40:58.159Z,101220.41
2022-10-03T11:43:53.044Z,101216.78
2022-10-03T11:46:46.158Z,101220.28
2022-10-03T11:49:40.813Z,101224.56
2022-10-03T11:52:45.042Z,101217.53
2022-10-03T11:55:39.766Z,101223.88
2022-10-03T11:58:56.299Z,101215.94
2022-10-03T12:01:53.993Z,101217.75
2022-10-03T12:04:32.019Z,101223.88
2022-10-03T12:07:24.864Z,101225.50
2022-10-03T12:10:03.462Z,101213.72
2022-10-03T12:12:55.046Z,101224.25
2022-10-03T12:15:44.895Z,101219.91
2022-10-03T12:18:41.011Z,101225.97
2022-10-03T12:21:21.971Z,101221.59
2022-10-03T12:24:20.757Z,101225.97
2022-10-03T12:27:19.087Z,101217.19
2022-10-03T12:29:58.786Z,101224.28
2022-10-03T12:32:44.185Z,101226.09
2022-10-03T12:35:41.639Z,101219.88
2022-10-03T12:38:25.428Z,101221.63
2022-10-03T12:41:07.442Z,101224.44
2022-10-03T12:43:56.941Z,101233.47
2022-10-03T12:46:43.760Z,101224.69
2022-10-03T12:49:23.023Z,101223.88
2022-10-03T12:51:53.167Z,101220.47
2022-10-03T12:54:25.880Z,101229.34
2022-10-03T12:57:39.130Z,101221.53
2022-10-03T13:00:07.762Z,101222.47
2022-10-03T13:02:41.151Z,101223.44
2022-10-03T13:05:31.693Z,101224.31
2022-10-03T13:08:06.897Z,101218.22
2022-10-03T13:10:39.282Z,101220.88
2022-10-03T13:13:33.692Z,101212.13
2022-10-03T13:16:13.608Z,101221.75
2022-10-03T13:19:06.602Z,101219.00
2022-10-03T13:22:06.450Z,101212.69
2022-10-03T13:24:50.490Z,101214.44
2022-10-03T13:27:22.910Z,101209.94
2022-10-03T13:30:25.125Z,101202.66
2022-10-03T13:33:03.262Z,101213.94
2022-10-03T13:35:58.323Z,101205.81
2022-10-03T13:39:03.012Z,101205.75
2022-10-03T13:42:16.006Z,101195.91
2022-10-03T13:44:55.586Z,101202.75
2022-10-03T13:47:38.992Z,101204.38
2022-10-03T13:50:15.344Z,101208.72
2022-10-03T13:52:57.982Z,101205.13
2022-10-03T13:55:36.846Z,101197.13
2022-10-03T13:58:32.713Z,101197.06
2022-10-03T14:01:24.495Z,101198.84
2022-10-03T14:04:25.871Z,101201.59
2022-10-03T14:07:16.323Z,101200.88
2022-10-03T14:10:13.076Z,101191.41
2022-10-03T14:13:10.725Z,101194.16
2022-10-03T14:15:58.381Z,101192.31
2022-10-03T14:18:56.312Z,101182.63
2022-10-03T14:21:47.919Z,101184.34
2022-10-03T14:24:42.969Z,101189.56
2022-10-03T14:27:37.058Z,101185.91
2022-10-03T14:30:11.261Z,101186.72
2022-10-03T14:32:54.224Z,101192.91
2022-10-03T14:35:39.369Z,101180.47
2022-10-03T14:38:20.371Z,101183.06
2022-10-03T14:40:56.385Z,101182.09
2022-10-03T14:43:30.525Z,101176.59
2022-10-03T14:46:02.092Z,101179.19
2022-10-03T14:48:36.500Z,101182.75
2022-10-03T14:51:26.467Z,101180.19
2022-10-03T14:54:05.302Z,101181.09
2022-10-03T14:56:44.151Z,101169.72
2022-10-03T14:59:21.561Z,101172.31
2022-10-03T15:01:55.034Z,101175.91
2022-10-03T15:04:30.027Z,101175.13
2022-10-03T15:07:00.680Z,101164.50
2022-10-03T15:09:40.104Z,101168.06
2022-10-03T15:12:10.185Z,101165.38
2022-10-03T15:14:43.070Z,101171.56
2022-10-03T15:17:43.276Z,101166.28
2022-10-03T15:20:12.529Z,101179.72
2022-10-03T15:22:44.299Z,101171.72
2022-10-03T15:25:30.843Z,101179.78
2022-10-03T15:28:03.908Z,101181.56
2022-10-03T15:30:39.338Z,101176.38
2022-10-03T15:33:24.647Z,101185.28
2022-10-03T15:35:59.410Z,101181.88
2022-10-03T15:38:37.682Z,101180.19
2022-10-03T15:41:18.914Z,101181.22
2022-10-03T15:43:57.106Z,101188.38
2022-10-03T15:46:54.917Z,101182.22
2022-10-03T15:49:40.155Z,101190.28
2022-10-03T15:52:18.519Z,101193.97
2022-10-03T15:55:11.156Z,101189.75
2022-10-03T15:57:44.861Z,101195.16
2022-10-03T16:00:33.728Z,101193.44
2022-10-03T16:03:24.234Z,101192.72
2022-10-03T16:06:00.742Z,101204.38
2022-10-03T16:08:31.167Z,101196.47
2022-10-03T16:11:16.014Z,101196.59
2022-10-03T16:13:47.838Z,101200.28
2022-10-03T16:16:19.982Z,101200.56
2022-10-03T16:18:52.087Z,101192.84
2022-10-03T16:21:45.768Z,101195.78
2022-10-03T16:24:40.538Z,101192.47
2022-10-03T16:27:18.940Z,101190.00
2022-10-03T16:29:57.969Z,101185.75
2022-10-03T16:32:28.357Z,101191.31
2022-10-03T16:35:01.134Z,101186.22
2022-10-03T16:37:29.950Z,101195.25
2022-10-03T16:40:05.887Z,101191.94
2022-10-03T16:42:44.331Z,101190.38
2022-10-03T16:45:41.648Z,101189.66
2022-10-03T16:49:08.119Z,101186.25
2022-10-03T16:51:43.060Z,101191.69
2022-10-03T16:54:15.943Z,101186.47
2022-10-03T16:56:48.090Z,101187.44
2022-10-03T16:59:19.522Z,101193.69
2022-10-03T17:01:51.620Z,101186.69
2022-10-03T17:04:25.667Z,101188.53
2022-10-03T17:06:57.270Z,101187.78
2022-10-03T17:09:41.702Z,101183.38
2022-10-03T17:12:17.558Z,101180.91
2022-10-03T17:14:45.134Z,101184.47
2022-10-03T17:17:33.219Z,101186.25
2022-10-03T17:20:07.059Z,101177.53
2022-10-03T17:22:47.495Z,101179.38
2022-10-03T17:25:17.424Z,101188.19
2022-10-03T17:27:50.886Z,101176.75
2022-10-03T17:30:44.080Z,101186.44
2022-10-03T17:33:28.626Z,101188.28
2022-10-03T17:36:20.923Z,101192.75
2022-10-03T17:39:02.392Z,101194.50
2022-10-03T17:41:59.548Z,101190.16
2022-10-03T17:44:33.917Z,101191.09
2022-10-03T17:47:23.897Z,101191.16
2022-10-03T17:50:06.672Z,101192.97
2022-10-03T17:52:40.982Z,101197.38
2022-10-03T17:55:16.619Z,101199.25
2022-10-03T17:57:52.890Z,101198.47
2022-10-03T18:00:55.749Z,101198.47
2022-10-03T18:03:33.864Z,101202.03
2022-10-03T18:06:25.846Z,101200.25
2022-10-03T18:08:53.473Z,101192.28
2022-10-03T18:11:23.945Z,101194.00
2022-10-03T18:14:00.117Z,101194.00
2022-10-03T18:16:37.502Z,101201.03
2022-10-03T18:19:26.259Z,101203.69
2022-10-03T18:22:21.112Z,101201.88
2022-10-03T18:25:32.114Z,101204.53
2022-10-03T18:28:13.424Z,101208.03
2022-10-03T18:30:56.278Z,101208.91
2022-10-03T18:33:46.639Z,101204.47
2022-10-03T18:36:22.539Z,101202.66
2022-10-03T18:38:52.613Z,101202.69
2022-10-03T18:41:19.542Z,101207.16
2022-10-03T18:43:58.752Z,101197.50
2022-10-03T18:46:42.695Z,101202.97
2022-10-03T18:49:33.411Z,101191.59
2022-10-03T18:52:19.449Z,101203.06
2022-10-03T18:55:15.056Z,101204.13
2022-10-03T18:57:54.324Z,101206.78
2022-10-03T19:00:26.667Z,101210.31
2022-10-03T19:02:58.213Z,101206.78
2022-10-03T19:05:46.210Z,101208.56
2022-10-03T19:08:42.322Z,101208.56
2022-10-03T19:11:17.786Z,101212.94
2022-10-03T19:13:56.014Z,101207.66
2022-10-03T19:16:40.082Z,101204.13
2022-10-03T19:19:29.079Z,101201.47
2022-10-03T19:22:01.071Z,101200.63
2022-10-03T19:24:53.449Z,101203.25
2022-10-03T19:27:24.005Z,101206.88
2022-10-03T19:29:54.326Z,101203.44
2022-10-03T19:32:48.655Z,101199.91
2022-10-03T19:35:21.252Z,101205.19
2022-10-03T19:37:51.936Z,101201.75
2022-10-03T19:40:39.557Z,101203.56
2022-10-03T19:43:18.083Z,101206.25
2022-10-03T19:46:03.411Z,101200.94
2022-10-03T19:48:33.466Z,101193.84
2022-10-03T19:51:23.935Z,101185.09
2022-10-03T19:53:54.725Z,101184.38
2022-10-03T19:56:25.736Z,101187.19
2022-10-03T19:59:04.787Z,101189.09
2022-10-03T20:01:46.240Z,101190.94
2022-10-03T20:04:16.793Z,101192.66
2022-10-03T20:06:48.771Z,101191.72
2022-10-03T20:09:27.508Z,101198.75
2022-10-03T20:12:06.568Z,101196.94
2022-10-03T20:14:40.675Z,101198.75
2022-10-03T20:17:24.896Z,101189.09
2022-10-03T20:20:04.072Z,101194.34
2022-10-03T20:22:34.287Z,101192.59
2022-10-03T20:25:08.651Z,101194.38
2022-10-03T20:27:46.019Z,101199.66
2022-10-03T20:30:33.683Z,101202.34
2022-10-03T20:33:00.625Z,101200.66
2022-10-03T20:35:31.066Z,101197.25
2022-10-03T20:38:20.032Z,101200.81
2022-10-03T20:40:56.944Z,101200.75
2022-10-03T20:43:42.352Z,101204.25
2022-10-03T20:46:47.679Z,101191.81
2022-10-03T20:49:40.773Z,101201.53
2022-10-03T20:52:16.137Z,101205.97
2022-10-03T20:54:58.483Z,101190.22
2022-10-03T20:57:47.971Z,101197.41
2022-10-03T21:00:14.707Z,101190.53
2022-10-03T21:02:59.426Z,101199.47
2022-10-03T21:05:37.707Z,101199.59
2022-10-03T21:08:41.372Z,101197.97
2022-10-03T21:11:10.947Z,101192.69
2022-10-03T21:13:54.843Z,101179.50
2022-10-03T21:16:30.841Z,101184.88
2022-10-03T21:19:11.874Z,101182.31
2022-10-03T21:21:50.126Z,101191.22
2022-10-03T21:24:58.486Z,101193.91
2022-10-03T21:27:26.470Z,101185.94
2022-10-03T21:30:31.244Z,101186.75
2022-10-03T21:33:11.379Z,101192.88
2022-10-03T21:35:41.716Z,101181.31
2022-10-03T21:38:08.314Z,101178.53
2022-10-03T21:40:56.225Z,101174.84
2022-10-03T21:43:57.199Z,101170.34
2022-10-03T21:46:23.885Z,101166.69
2022-10-03T21:48:59.614Z,101164.00
2022-10-03T21:52:00.650Z,101161.25
2022-10-03T21:55:05.603Z,101159.50
2022-10-03T21:57:52.703Z,101167.53
2022-10-03T22:00:26.481Z,101161.47
2022-10-03T22:03:26.982Z,101161.53
2022-10-03T22:06:17.954Z,101170.56
2022-10-03T22:08:49.683Z,101166.28
2022-10-03T22:11:27.908Z,101161.09
2022-10-03T22:14:09.253Z,101165.56
2022-10-03T22:16:46.127Z,101160.41
2022-10-03T22:19:32.530Z,101166.56
2022-10-03T22:22:08.495Z,101160.53
2022-10-03T22:24:46.326Z,101158.03
2022-10-03T22:27:20.775Z,101158.97
2022-10-03T22:30:12.476Z,101159.94
2022-10-03T22:32:54.331Z,101152.94
2022-10-03T22:35:40.726Z,101147.59
2022-10-03T22:38:08.327Z,101141.41
2022-10-03T22:40:42.213Z,101137.06
2022-10-03T22:43:16.257Z,101138.91
2022-10-03T22:45:47.072Z,101133.66
2022-10-03T22:48:21.849Z,101143.44
2022-10-03T22:50:48.907Z,101130.31
2022-10-03T22:53:19.518Z,101131.19
2022-10-03T22:55:51.257Z,101133.97
2022-10-03T22:58:20.643Z,101132.25
2022-10-03T23:00:53.254Z,101122.59
2022-10-03T23:03:32.582Z,101129.63
2022-10-03T23:06:41.012Z,101128.81
2022-10-03T23:09:18.982Z,101132.41
2022-10-03T23:11:52.479Z,101130.75
2022-10-03T23:14:26.123Z,101139.69
2022-10-03T23:16:59.539Z,101145.09
2022-10-03T23:19:50.215Z,101136.31
2022-10-03T23:22:25.055Z,101139.00
2022-10-03T23:25:01.155Z,101132.88
2022-10-03T23:27:56.093Z,101126.72
2022-10-03T23:30:25.830Z,101130.22
2022-10-03T23:32:56.382Z,101132.00
2022-10-03T23:35:31.985Z,101131.16
2022-10-03T23:38:03.282Z,101129.50
2022-10-03T23:40:38.921Z,101129.56
2022-10-03T23:43:30.029Z,101135.78
2022-10-03T23:46:19.856Z,101132.38
2022-10-03T23:48:59.345Z,101134.19
2022-10-03T23:51:34.813Z,101140.44
2022-10-03T23:54:08.415Z,101132.66
2022-10-03T23:56:41.370Z,101132.72
2022-10-03T23:59:16.099Z,101129.31
